Time;durP1;ratioP1;P1;durP2;ratioP2;P2;SDS_P1;SDS_P2;PMS_P1;PMS_P2;Temp;Humidity;BMP_temperature;BMP_pressure;BME280_temperature;BME280_humidity;BME280_pressure;Samples;Min_cycle;Max_cycle;Signal;HPM_P1;HPM_P2
2023/09/05 00:00:05;;;;;;;5.55;3.63;;;;;;;;;;5052101;28;20067;-57
2023/09/05 00:02:31;;;;;;;9.60;3.15;;;;;;;;;;5050504;28;20065;-57
2023/09/05 00:04:56;;;;;;;6.93;3.60;;;;;;;;;;5050765;28;20126;-57
2023/09/05 00:07:22;;;;;;;5.90;3.40;;;;;;;;;;5050822;28;20040;-56
2023/09/05 00:09:48;;;;;;;5.72;3.38;;;;;;;;;;5035849;28;20049;-55
2023/09/05 00:12:14;;;;;;;5.65;3.40;;;;;;;;;;5043567;28;20032;-56
2023/09/05 00:14:39;;;;;;;5.10;3.13;;;;;;;;;;5049149;28;20032;-55
2023/09/05 00:17:04;;;;;;;7.05;3.15;;;;;;;;;;5049366;28;20521;-55
2023/09/05 00:19:30;;;;;;;9.00;3.13;;;;;;;;;;5048920;28;20082;-53
2023/09/05 00:21:55;;;;;;;6.45;3.63;;;;;;;;;;5050740;28;20029;-53
2023/09/05 00:24:39;;;;;;;6.55;3.60;;;;;;;;;;5051640;28;20025;-54
2023/09/05 00:27:09;;;;;;;7.28;3.22;;;;;;;;;;5049760;28;20029;-54
2023/09/05 00:29:35;;;;;;;5.40;3.28;;;;;;;;;;5034495;28;20104;-55
2023/09/05 00:32:02;;;;;;;6.97;3.53;;;;;;;;;;5043166;28;20116;-55
2023/09/05 00:34:28;;;;;;;7.20;3.47;;;;;;;;;;5048575;28;20041;-57
2023/09/05 00:36:54;;;;;;;6.38;3.28;;;;;;;;;;5049882;28;20032;-55
2023/09/05 00:39:20;;;;;;;6.00;3.20;;;;;;;;;;5034504;28;20444;-57
2023/09/05 00:41:46;;;;;;;6.13;3.47;;;;;;;;;;5047463;28;20044;-52
2023/09/05 00:44:13;;;;;;;4.88;3.30;;;;;;;;;;5052187;28;20033;-56
2023/09/05 00:46:42;;;;;;;5.82;3.10;;;;;;;;;;5049817;28;20112;-56
2023/09/05 00:49:10;;;;;;;5.30;3.50;;;;;;;;;;5049635;28;20028;-55
2023/09/05 00:51:37;;;;;;;6.65;3.40;;;;;;;;;;5045124;28;20028;-58
2023/09/05 00:54:04;;;;;;;5.75;3.33;;;;;;;;;;5037247;28;20107;-56
2023/09/05 00:56:30;;;;;;;6.32;3.22;;;;;;;;;;5051066;28;20025;-56
2023/09/05 00:58:56;;;;;;;5.25;3.20;;;;;;;;;;5047341;28;20040;-57
2023/09/05 01:01:21;;;;;;;8.65;4.35;;;;;;;;;;5050359;28;20052;-57
2023/09/05 01:03:47;;;;;;;4.95;3.00;;;;;;;;;;5047474;28;20128;-55
2023/09/05 01:06:22;;;;;;;5.47;3.17;;;;;;;;;;5030170;28;20037;-52
2023/09/05 01:08:57;;;;;;;5.72;2.92;;;;;;;;;;5047165;28;20535;-57
2023/09/05 01:11:24;;;;;;;9.43;3.17;;;;;;;;;;5049147;28;20040;-56
2023/09/05 01:13:49;;;;;;;5.05;3.40;;;;;;;;;;5049926;28;20029;-53
2023/09/05 01:16:15;;;;;;;4.53;3.05;;;;;;;;;;5049897;28;20052;-55
2023/09/05 01:18:41;;;;;;;6.90;3.80;;;;;;;;;;5046703;28;20040;-56
2023/09/05 01:21:22;;;;;;;6.53;3.25;;;;;;;;;;5049029;28;20036;-56
2023/09/05 01:24:01;;;;;;;6.00;3.45;;;;;;;;;;5049006;28;20029;-56
2023/09/05 01:26:27;;;;;;;5.63;3.10;;;;;;;;;;5040256;28;20064;-54
2023/09/05 01:28:54;;;;;;;5.65;3.13;;;;;;;;;;5045245;28;20465;-56
2023/09/05 01:31:21;;;;;;;5.55;3.03;;;;;;;;;;5049241;28;20043;-56
2023/09/05 01:33:46;;;;;;;7.82;3.30;;;;;;;;;;5048265;28;20029;-54
2023/09/05 01:36:11;;;;;;;6.25;3.22;;;;;;;;;;5048565;28;20080;-56
2023/09/05 01:38:37;;;;;;;5.57;2.90;;;;;;;;;;5040015;28;20483;-57
2023/09/05 01:41:02;;;;;;;6.63;3.05;;;;;;;;;;5045804;28;20037;-54
2023/09/05 01:43:28;;;;;;;5.45;3.05;;;;;;;;;;5047185;28;20447;-55
2023/09/05 01:45:53;;;;;;;4.22;2.88;;;;;;;;;;5042158;28;20095;-57
2023/09/05 01:48:18;;;;;;;5.35;2.90;;;;;;;;;;5049026;28;20029;-56
2023/09/05 01:50:44;;;;;;;5.55;3.00;;;;;;;;;;5047164;28;20528;-55
2023/09/05 01:53:09;;;;;;;5.50;2.78;;;;;;;;;;5047703;28;20025;-52
2023/09/05 01:55:35;;;;;;;6.05;3.00;;;;;;;;;;5049581;28;20044;-54
2023/09/05 01:58:00;;;;;;;4.70;3.13;;;;;;;;;;5054120;28;20028;-56
2023/09/05 02:00:25;;;;;;;6.40;3.60;;;;;;;;;;5034707;28;20033;-54
2023/09/05 02:02:51;;;;;;;5.60;3.20;;;;;;;;;;5038635;28;20515;-57
2023/09/05 02:05:16;;;;;;;6.20;3.40;;;;;;;;;;5053145;28;20037;-53
2023/09/05 02:07:42;;;;;;;7.18;3.30;;;;;;;;;;5053552;28;20033;-54
2023/09/05 02:10:11;;;;;;;7.00;3.50;;;;;;;;;;5053357;28;20044;-56
2023/09/05 02:12:37;;;;;;;6.57;3.67;;;;;;;;;;5040677;28;20052;-56
2023/09/05 02:15:03;;;;;;;8.32;3.67;;;;;;;;;;5047516;28;20486;-52
2023/09/05 02:17:34;;;;;;;5.68;3.22;;;;;;;;;;5048770;28;20037;-56
2023/09/05 02:20:00;;;;;;;5.00;3.30;;;;;;;;;;5052163;28;20423;-53
2023/09/05 02:22:25;;;;;;;5.50;3.13;;;;;;;;;;5053609;28;20033;-55
2023/09/05 02:24:50;;;;;;;5.70;3.30;;;;;;;;;;5052459;28;20091;-54
2023/09/05 02:27:16;;;;;;;7.38;3.33;;;;;;;;;;5052299;28;20071;-53
2023/09/05 02:29:41;;;;;;;5.85;3.42;;;;;;;;;;5043320;28;20084;-52
2023/09/05 02:32:07;;;;;;;7.68;3.67;;;;;;;;;;5034647;28;20041;-57
2023/09/05 02:34:32;;;;;;;7.22;3.33;;;;;;;;;;5035535;28;20068;-57
2023/09/05 02:37:00;;;;;;;6.22;3.40;;;;;;;;;;5043579;28;20033;-53
2023/09/05 02:39:26;;;;;;;6.90;3.58;;;;;;;;;;5040747;28;20036;-53
2023/09/05 02:41:55;;;;;;;6.07;3.42;;;;;;;;;;5046365;28;20035;-56
2023/09/05 02:44:20;;;;;;;5.93;3.75;;;;;;;;;;5050059;28;20111;-54
2023/09/05 02:46:46;;;;;;;4.65;3.53;;;;;;;;;;5051745;28;20437;-52
2023/09/05 02:49:11;;;;;;;6.43;3.90;;;;;;;;;;5050058;28;20452;-54
2023/09/05 02:51:36;;;;;;;7.85;3.50;;;;;;;;;;5052280;28;20033;-55
2023/09/05 02:54:05;;;;;;;6.97;3.75;;;;;;;;;;5046987;28;20034;-56
2023/09/05 02:56:30;;;;;;;5.03;3.60;;;;;;;;;;5052445;28;20041;-56
2023/09/05 02:58:56;;;;;;;7.45;3.30;;;;;;;;;;5052907;28;20545;-54
2023/09/05 03:01:21;;;;;;;5.75;3.60;;;;;;;;;;5052319;28;20032;-55
2023/09/05 03:03:48;;;;;;;5.38;3.38;;;;;;;;;;5049758;28;20086;-56
2023/09/05 03:06:15;;;;;;;7.22;3.65;;;;;;;;;;5051061;28;20041;-55
2023/09/05 03:08:42;;;;;;;7.05;3.95;;;;;;;;;;5048979;28;20041;-55
2023/09/05 03:11:08;;;;;;;5.88;3.80;;;;;;;;;;5051226;28;20053;-52
2023/09/05 03:13:34;;;;;;;7.28;3.80;;;;;;;;;;5048855;28;20410;-57
2023/09/05 03:15:59;;;;;;;6.57;3.50;;;;;;;;;;5045332;28;20042;-57
2023/09/05 03:18:25;;;;;;;6.28;3.67;;;;;;;;;;5046638;28;20035;-57
2023/09/05 03:21:15;;;;;;;6.65;4.00;;;;;;;;;;5051636;28;20040;-55
2023/09/05 03:23:40;;;;;;;5.95;3.90;;;;;;;;;;5032935;28;20045;-54
2023/09/05 03:26:05;;;;;;;6.13;3.67;;;;;;;;;;5033348;28;20041;-57
2023/09/05 03:28:44;;;;;;;5.63;3.70;;;;;;;;;;5039914;28;20029;-56
2023/09/05 03:31:10;;;;;;;7.25;4.15;;;;;;;;;;5041033;28;20037;-55
2023/09/05 03:33:36;;;;;;;7.70;4.07;;;;;;;;;;5050313;28;20027;-57
2023/09/05 03:36:01;;;;;;;8.73;3.92;;;;;;;;;;5047287;28;20029;-56
2023/09/05 03:38:27;;;;;;;6.32;4.35;;;;;;;;;;5048891;28;20388;-54
2023/09/05 03:40:54;;;;;;;7.43;4.47;;;;;;;;;;5050748;28;20044;-52
2023/09/05 03:43:19;;;;;;;7.78;4.40;;;;;;;;;;5050753;28;20064;-57
2023/09/05 03:45:48;;;;;;;6.82;4.68;;;;;;;;;;5050937;28;20033;-51
2023/09/05 03:48:13;;;;;;;5.85;4.20;;;;;;;;;;5051018;28;20036;-52
2023/09/05 03:50:39;;;;;;;6.22;4.65;;;;;;;;;;5045573;28;20433;-55
2023/09/05 03:53:05;;;;;;;6.57;4.25;;;;;;;;;;5046417;28;20067;-53
2023/09/05 03:55:34;;;;;;;6.10;4.50;;;;;;;;;;5051834;28;20442;-52
2023/09/05 03:58:03;;;;;;;8.32;4.35;;;;;;;;;;5031823;28;20029;-55
2023/09/05 04:00:32;;;;;;;9.65;4.78;;;;;;;;;;5032763;28;20492;-54
2023/09/05 04:02:57;;;;;;;8.45;4.65;;;;;;;;;;5035041;28;20033;-50
2023/09/05 04:05:22;;;;;;;7.53;5.00;;;;;;;;;;5037457;28;20033;-55
2023/09/05 04:07:48;;;;;;;7.50;4.90;;;;;;;;;;5037758;28;20037;-52
2023/09/05 04:10:13;;;;;;;8.10;4.82;;;;;;;;;;5037721;28;20031;-55
2023/09/05 04:12:39;;;;;;;6.95;4.47;;;;;;;;;;5051707;28;20377;-56
2023/09/05 04:15:05;;;;;;;6.65;4.88;;;;;;;;;;5051079;28;20049;-54
2023/09/05 04:17:31;;;;;;;7.25;4.82;;;;;;;;;;5034196;28;20041;-51
2023/09/05 04:19:59;;;;;;;6.55;4.90;;;;;;;;;;5040215;28;20029;-52
2023/09/05 04:22:27;;;;;;;7.72;4.90;;;;;;;;;;5042162;28;20050;-56
2023/09/05 04:24:55;;;;;;;6.65;4.82;;;;;;;;;;5049951;28;20449;-55
2023/09/05 04:27:21;;;;;;;8.82;5.25;;;;;;;;;;5051060;28;20380;-54
2023/09/05 04:29:51;;;;;;;7.05;5.03;;;;;;;;;;5050702;28;20104;-56
2023/09/05 04:32:32;;;;;;;10.20;5.07;;;;;;;;;;5046846;28;20116;-53
2023/09/05 04:34:59;;;;;;;11.20;5.20;;;;;;;;;;5044035;28;20032;-55
2023/09/05 04:37:25;;;;;;;7.93;5.20;;;;;;;;;;5042685;28;20622;-55
2023/09/05 04:39:51;;;;;;;7.65;5.38;;;;;;;;;;5031121;28;20037;-55
2023/09/05 04:42:16;;;;;;;7.22;5.47;;;;;;;;;;5031717;28;20082;-54
2023/09/05 04:44:42;;;;;;;8.10;5.40;;;;;;;;;;5037289;28;20076;-55
2023/09/05 04:47:22;;;;;;;7.47;5.43;;;;;;;;;;5046366;28;20043;-55
2023/09/05 04:49:49;;;;;;;8.80;5.18;;;;;;;;;;5047234;28;20037;-52
2023/09/05 04:52:14;;;;;;;9.18;5.22;;;;;;;;;;5040529;28;20047;-55
2023/09/05 04:54:41;;;;;;;8.43;5.15;;;;;;;;;;5051569;28;20033;-55
2023/09/05 04:57:06;;;;;;;6.50;5.07;;;;;;;;;;5045222;28;20032;-56
2023/09/05 04:59:31;;;;;;;8.07;5.25;;;;;;;;;;5051821;28;20098;-56
2023/09/05 05:01:57;;;;;;;7.53;5.28;;;;;;;;;;5050766;28;20033;-51
2023/09/05 05:04:22;;;;;;;7.03;5.25;;;;;;;;;;5051927;28;20060;-54
2023/09/05 05:06:48;;;;;;;8.90;5.32;;;;;;;;;;5036562;28;20044;-55
2023/09/05 05:09:13;;;;;;;8.65;5.10;;;;;;;;;;5050205;28;20083;-55
2023/09/05 05:11:38;;;;;;;10.13;5.45;;;;;;;;;;5051480;28;20029;-55
2023/09/05 05:14:04;;;;;;;6.70;5.05;;;;;;;;;;5048861;28;20055;-54
2023/09/05 05:16:29;;;;;;;7.13;5.18;;;;;;;;;;5045160;28;20057;-55
2023/09/05 05:18:55;;;;;;;9.68;5.47;;;;;;;;;;5047425;28;20033;-55
2023/09/05 05:21:20;;;;;;;5.72;4.65;;;;;;;;;;5030653;28;20029;-54
2023/09/05 05:23:45;;;;;;;6.93;5.07;;;;;;;;;;5029512;28;20040;-57
2023/09/05 05:26:11;;;;;;;7.85;5.10;;;;;;;;;;5034384;28;20108;-55
2023/09/05 05:28:36;;;;;;;8.95;5.60;;;;;;;;;;5052910;28;20052;-52
2023/09/05 05:31:02;;;;;;;6.68;5.05;;;;;;;;;;5052988;28;20094;-55
2023/09/05 05:33:27;;;;;;;8.07;5.22;;;;;;;;;;5048856;28;20033;-53
2023/09/05 05:35:54;;;;;;;7.95;5.22;;;;;;;;;;5051179;28;20036;-57
2023/09/05 05:38:20;;;;;;;7.97;5.28;;;;;;;;;;5053087;28;20043;-56
2023/09/05 05:40:45;;;;;;;9.27;5.90;;;;;;;;;;5052250;28;20033;-54
2023/09/05 05:43:11;;;;;;;7.68;5.43;;;;;;;;;;5051282;28;20438;-55
2023/09/05 05:45:36;;;;;;;7.07;5.20;;;;;;;;;;5052866;28;20021;-53
2023/09/05 05:48:01;;;;;;;9.00;5.72;;;;;;;;;;5044715;28;20087;-53
2023/09/05 05:50:27;;;;;;;10.82;5.78;;;;;;;;;;5046469;28;20496;-55
2023/09/05 05:52:54;;;;;;;7.82;5.47;;;;;;;;;;5040491;28;20037;-54
2023/09/05 05:55:19;;;;;;;18.30;5.80;;;;;;;;;;5053465;28;20310;-56
2023/09/05 05:57:44;;;;;;;8.55;5.65;;;;;;;;;;5044988;28;20535;-56
2023/09/05 06:00:10;;;;;;;9.65;6.20;;;;;;;;;;5033131;28;20029;-53
2023/09/05 06:02:35;;;;;;;8.77;6.03;;;;;;;;;;5040252;28;20033;-54
2023/09/05 06:05:01;;;;;;;9.68;6.22;;;;;;;;;;5049996;28;20481;-51
2023/09/05 06:07:26;;;;;;;8.23;5.85;;;;;;;;;;5052696;28;20124;-50
2023/09/05 06:09:52;;;;;;;10.25;6.20;;;;;;;;;;5050354;28;20059;-54
2023/09/05 06:12:17;;;;;;;8.90;5.80;;;;;;;;;;5033798;28;20033;-55
2023/09/05 06:14:43;;;;;;;12.30;6.25;;;;;;;;;;4998719;28;1113067;-54
2023/09/05 06:17:08;;;;;;;10.15;6.07;;;;;;;;;;5046992;28;20040;-51
2023/09/05 06:19:34;;;;;;;13.55;5.80;;;;;;;;;;5037794;28;20368;-53
2023/09/05 06:21:59;;;;;;;10.10;5.82;;;;;;;;;;5052027;28;20029;-54
2023/09/05 06:24:25;;;;;;;8.70;5.85;;;;;;;;;;5052528;28;20456;-53
2023/09/05 06:26:50;;;;;;;8.55;5.07;;;;;;;;;;5042787;28;20045;-54
2023/09/05 06:29:15;;;;;;;8.30;5.57;;;;;;;;;;5052088;28;20033;-54
2023/09/05 06:31:42;;;;;;;9.05;5.35;;;;;;;;;;5052186;28;20132;-55
2023/09/05 06:34:07;;;;;;;10.38;5.70;;;;;;;;;;5051018;28;20717;-54
2023/09/05 06:36:32;;;;;;;8.80;5.28;;;;;;;;;;5053144;28;20033;-52
2023/09/05 06:38:58;;;;;;;8.35;4.95;;;;;;;;;;5052441;28;20110;-52
2023/09/05 06:41:23;;;;;;;10.00;5.03;;;;;;;;;;5050863;28;21845;-54
2023/09/05 06:43:50;;;;;;;7.10;4.90;;;;;;;;;;5053596;28;20036;-55
2023/09/05 06:46:15;;;;;;;8.70;4.60;;;;;;;;;;5052869;28;20052;-51
2023/09/05 06:48:40;;;;;;;10.68;4.70;;;;;;;;;;5050494;28;20413;-55
2023/09/05 06:51:06;;;;;;;7.90;5.10;;;;;;;;;;5052073;28;20033;-55
2023/09/05 06:53:32;;;;;;;7.35;4.75;;;;;;;;;;5052411;28;20029;-54
2023/09/05 06:55:57;;;;;;;7.88;4.25;;;;;;;;;;5052014;28;20440;-55
2023/09/05 06:58:25;;;;;;;12.35;4.80;;;;;;;;;;5041285;28;20034;-52
2023/09/05 07:00:54;;;;;;;6.20;4.22;;;;;;;;;;5037740;28;20032;-55
2023/09/05 07:03:21;;;;;;;7.97;4.20;;;;;;;;;;5053632;28;20031;-55
2023/09/05 07:05:46;;;;;;;11.57;4.35;;;;;;;;;;5050821;28;20037;-55
2023/09/05 07:08:12;;;;;;;7.75;4.35;;;;;;;;;;5052215;28;20043;-54
2023/09/05 07:10:37;;;;;;;6.63;4.30;;;;;;;;;;5053759;28;20032;-55
2023/09/05 07:13:03;;;;;;;6.32;4.32;;;;;;;;;;5051855;28;20090;-55
2023/09/05 07:15:28;;;;;;;7.88;4.40;;;;;;;;;;5051463;28;20043;-54
2023/09/05 07:17:54;;;;;;;8.48;4.10;;;;;;;;;;5049420;28;20024;-55
2023/09/05 07:20:19;;;;;;;8.82;4.43;;;;;;;;;;5052863;28;20072;-53
2023/09/05 07:22:45;;;;;;;6.05;4.00;;;;;;;;;;5052635;28;20061;-52
2023/09/05 07:25:10;;;;;;;6.18;3.90;;;;;;;;;;5051645;28;20199;-53
2023/09/05 07:27:36;;;;;;;5.78;3.85;;;;;;;;;;5050781;28;20461;-49
2023/09/05 07:30:01;;;;;;;5.75;3.55;;;;;;;;;;5047690;28;20029;-54
2023/09/05 07:32:26;;;;;;;6.63;3.90;;;;;;;;;;5047916;28;20115;-55
2023/09/05 07:34:55;;;;;;;7.60;4.30;;;;;;;;;;5046553;28;20033;-57
2023/09/05 07:37:20;;;;;;;7.78;3.38;;;;;;;;;;5050616;28;20029;-56
2023/09/05 07:39:50;;;;;;;6.28;3.53;;;;;;;;;;5051525;28;20060;-56
2023/09/05 07:42:16;;;;;;;8.68;3.83;;;;;;;;;;5048174;28;20032;-53
2023/09/05 07:44:42;;;;;;;6.68;3.40;;;;;;;;;;5038464;28;20078;-54
2023/09/05 07:47:07;;;;;;;7.10;3.47;;;;;;;;;;5050712;28;20473;-55
2023/09/05 07:49:36;;;;;;;5.32;2.90;;;;;;;;;;5043417;28;20049;-51
2023/09/05 07:52:03;;;;;;;5.35;2.70;;;;;;;;;;5048217;28;20132;-51
2023/09/05 07:54:28;;;;;;;6.63;3.00;;;;;;;;;;5041438;28;20025;-51
2023/09/05 07:56:53;;;;;;;6.35;2.67;;;;;;;;;;5035521;28;20033;-57
2023/09/05 07:59:19;;;;;;;6.50;3.17;;;;;;;;;;5048037;28;20453;-54
2023/09/05 08:01:44;;;;;;;6.57;2.83;;;;;;;;;;5047930;28;20040;-55
2023/09/05 08:04:10;;;;;;;5.40;2.88;;;;;;;;;;5049413;28;20115;-54
2023/09/05 08:06:35;;;;;;;6.70;2.67;;;;;;;;;;5051958;28;20041;-55
2023/09/05 08:09:01;;;;;;;6.57;2.80;;;;;;;;;;5038926;28;20033;-53
2023/09/05 08:11:27;;;;;;;5.85;2.60;;;;;;;;;;5034444;28;20045;-55
2023/09/05 08:13:52;;;;;;;4.53;2.80;;;;;;;;;;5033381;28;20506;-57
2023/09/05 08:16:17;;;;;;;4.85;2.75;;;;;;;;;;5032771;28;20052;-53
2023/09/05 08:18:43;;;;;;;5.25;2.70;;;;;;;;;;5049505;28;20424;-55
2023/09/05 08:21:08;;;;;;;6.70;2.63;;;;;;;;;;5050426;28;20115;-55
2023/09/05 08:23:34;;;;;;;5.22;2.72;;;;;;;;;;5051237;28;20025;-54
2023/09/05 08:26:00;;;;;;;6.75;2.80;;;;;;;;;;5051754;28;20389;-55
2023/09/05 08:28:32;;;;;;;4.35;2.50;;;;;;;;;;5034130;28;20477;-52
2023/09/05 08:31:01;;;;;;;5.72;2.65;;;;;;;;;;5048885;28;20067;-57
2023/09/05 08:33:27;;;;;;;10.37;2.97;;;;;;;;;;5041930;28;20025;-55
2023/09/05 08:35:53;;;;;;;6.93;2.65;;;;;;;;;;5052103;28;20116;-53
2023/09/05 08:38:18;;;;;;;5.53;2.80;;;;;;;;;;5049190;28;20111;-53
2023/09/05 08:40:50;;;;;;;4.90;2.50;;;;;;;;;;5051206;28;20037;-54
2023/09/05 08:43:17;;;;;;;5.25;2.33;;;;;;;;;;5050346;28;20211;-51
2023/09/05 08:45:46;;;;;;;6.80;2.70;;;;;;;;;;5033558;28;20051;-54
2023/09/05 08:48:12;;;;;;;5.90;2.90;;;;;;;;;;5049165;28;20128;-55
2023/09/05 08:50:39;;;;;;;5.72;2.50;;;;;;;;;;5051657;28;20468;-53
2023/09/05 08:53:11;;;;;;;3.75;2.63;;;;;;;;;;5050277;28;20032;-52
2023/09/05 08:55:41;;;;;;;4.28;2.67;;;;;;;;;;5051441;28;20029;-53
2023/09/05 08:58:11;;;;;;;7.13;2.70;;;;;;;;;;5049790;28;20033;-53
2023/09/05 09:00:37;;;;;;;5.03;2.58;;;;;;;;;;5036354;28;20029;-54
2023/09/05 09:03:05;;;;;;;5.97;2.30;;;;;;;;;;5042076;28;20366;-55
2023/09/05 09:05:30;;;;;;;4.43;2.55;;;;;;;;;;5050626;28;20492;-55
2023/09/05 09:07:56;;;;;;;5.47;2.42;;;;;;;;;;5050783;28;20036;-55
2023/09/05 09:10:23;;;;;;;3.60;2.40;;;;;;;;;;5051311;28;20086;-53
2023/09/05 09:13:12;;;;;;;4.05;2.50;;;;;;;;;;5050577;28;20525;-53
2023/09/05 09:15:41;;;;;;;4.68;2.60;;;;;;;;;;5050277;28;20060;-54
2023/09/05 09:18:12;;;;;;;4.35;2.30;;;;;;;;;;5048186;28;20029;-56
2023/09/05 09:20:44;;;;;;;6.22;2.70;;;;;;;;;;5051719;28;20087;-53
2023/09/05 09:23:10;;;;;;;6.75;2.80;;;;;;;;;;5048848;28;20036;-57
2023/09/05 09:25:45;;;;;;;9.90;2.85;;;;;;;;;;5050418;28;20025;-57
2023/09/05 09:28:29;;;;;;;4.00;2.40;;;;;;;;;;5049706;28;20048;-53
2023/09/05 09:31:03;;;;;;;5.82;2.67;;;;;;;;;;5045920;28;20044;-52
2023/09/05 09:33:30;;;;;;;5.05;2.67;;;;;;;;;;5043751;28;20036;-53
2023/09/05 09:36:01;;;;;;;10.02;2.78;;;;;;;;;;5051326;28;20029;-55
2023/09/05 09:38:28;;;;;;;5.90;2.75;;;;;;;;;;5049727;28;20531;-56
2023/09/05 09:40:55;;;;;;;7.07;2.60;;;;;;;;;;5050596;28;20040;-55
2023/09/05 09:43:21;;;;;;;6.75;2.60;;;;;;;;;;5049705;28;20040;-55
2023/09/05 09:45:46;;;;;;;5.40;2.60;;;;;;;;;;5050788;28;20029;-54
2023/09/05 09:48:15;;;;;;;7.22;2.90;;;;;;;;;;5046171;28;20048;-54
2023/09/05 09:50:43;;;;;;;6.25;2.85;;;;;;;;;;5051621;28;20179;-55
2023/09/05 09:53:12;;;;;;;6.00;2.80;;;;;;;;;;5048991;28;20037;-53
2023/09/05 09:55:43;;;;;;;6.18;2.70;;;;;;;;;;5041278;28;20500;-51
2023/09/05 09:58:13;;;;;;;6.97;2.60;;;;;;;;;;5049301;28;20094;-54
2023/09/05 10:00:45;;;;;;;5.75;2.53;;;;;;;;;;5033116;28;20021;-55
2023/09/05 10:03:13;;;;;;;4.03;2.60;;;;;;;;;;5027994;28;20127;-55
2023/09/05 10:05:41;;;;;;;5.75;2.58;;;;;;;;;;5045093;28;20037;-52
2023/09/05 10:08:09;;;;;;;6.03;2.35;;;;;;;;;;5047511;28;20491;-52
2023/09/05 10:10:39;;;;;;;7.95;2.80;;;;;;;;;;5052024;28;20078;-54
2023/09/05 10:13:07;;;;;;;5.40;2.70;;;;;;;;;;5053396;28;20059;-56
2023/09/05 10:15:35;;;;;;;6.50;2.40;;;;;;;;;;5041280;28;20045;-56
2023/09/05 10:18:01;;;;;;;7.13;2.75;;;;;;;;;;5050992;28;20033;-57
2023/09/05 10:20:27;;;;;;;4.13;2.45;;;;;;;;;;5053371;28;20040;-56
2023/09/05 10:22:53;;;;;;;5.65;2.70;;;;;;;;;;5049966;28;20033;-54
2023/09/05 10:25:20;;;;;;;6.50;2.60;;;;;;;;;;5051234;28;20029;-54
2023/09/05 10:27:45;;;;;;;6.35;2.45;;;;;;;;;;5035276;28;20084;-51
2023/09/05 10:30:11;;;;;;;4.60;2.28;;;;;;;;;;5052862;28;20508;-55
2023/09/05 10:32:41;;;;;;;4.38;2.40;;;;;;;;;;5045477;28;20033;-56
2023/09/05 10:35:07;;;;;;;;;;;;;;;;;;5052693;28;20033;-56
2023/09/05 10:37:32;;;;;;;5.97;2.25;;;;;;;;;;5045334;28;19917;-55
2023/09/05 10:40:06;;;;;;;7.03;2.47;;;;;;;;;;5053316;28;20481;-55
2023/09/05 10:42:33;;;;;;;6.10;2.28;;;;;;;;;;5053043;28;20044;-56
2023/09/05 10:45:16;;;;;;;3.58;2.15;;;;;;;;;;5039683;28;20033;-56
2023/09/05 10:47:41;;;;;;;4.07;2.00;;;;;;;;;;5034878;28;20497;-55
2023/09/05 10:50:08;;;;;;;5.68;2.10;;;;;;;;;;5050440;28;21641;-55
2023/09/05 10:52:34;;;;;;;4.53;2.10;;;;;;;;;;5047956;28;20116;-57
2023/09/05 10:55:32;;;;;;;2.30;1.75;;;;;;;;;;5053630;28;20036;-56
2023/09/05 10:57:58;;;;;;;3.25;1.63;;;;;;;;;;5053070;28;20060;-54
2023/09/05 11:00:26;;;;;;;2.70;1.60;;;;;;;;;;5052221;28;20029;-55
2023/09/05 11:02:54;;;;;;;2.53;1.65;;;;;;;;;;5052377;28;20155;-55
2023/09/05 11:05:20;;;;;;;5.32;1.60;;;;;;;;;;5052195;28;20112;-56
2023/09/05 11:07:46;;;;;;;2.63;1.70;;;;;;;;;;5043838;28;20108;-52
2023/09/05 11:10:29;;;;;;;1.77;1.40;;;;;;;;;;5050560;28;20436;-53
2023/09/05 11:12:55;;;;;;;4.65;1.50;;;;;;;;;;5053062;28;20175;-56
2023/09/05 11:15:30;;;;;;;3.42;1.70;;;;;;;;;;5038329;28;20044;-56
2023/09/05 11:18:00;;;;;;;2.05;1.60;;;;;;;;;;5050275;28;20028;-53
2023/09/05 11:20:53;;;;;;;3.55;1.80;;;;;;;;;;5049779;28;20060;-56
2023/09/05 11:23:25;;;;;;;1.98;1.83;;;;;;;;;;5051040;28;20040;-54
2023/09/05 11:25:55;;;;;;;2.13;1.90;;;;;;;;;;5052444;28;20494;-53
2023/09/05 11:28:24;;;;;;;;;;;;;;;;;;5051600;28;20044;-54
2023/09/05 11:30:55;;;;;;;3.30;2.30;;;;;;;;;;5052916;28;19909;-56
2023/09/05 11:33:20;;;;;;;2.55;2.30;;;;;;;;;;5046614;28;20279;-52
2023/09/05 11:35:48;;;;;;;3.88;2.30;;;;;;;;;;5053306;28;20033;-56
2023/09/05 11:38:15;;;;;;;2.70;2.50;;;;;;;;;;5050625;28;20029;-56
2023/09/05 11:40:51;;;;;;;2.60;2.30;;;;;;;;;;5053364;28;20126;-56
2023/09/05 11:43:16;;;;;;;2.70;2.50;;;;;;;;;;5052197;28;20102;-56
2023/09/05 11:45:43;;;;;;;4.15;2.70;;;;;;;;;;5051826;28;20420;-53
2023/09/05 11:48:11;;;;;;;2.97;2.60;;;;;;;;;;5050797;28;20064;-56
2023/09/05 11:50:39;;;;;;;4.28;2.70;;;;;;;;;;5052440;28;20044;-55
2023/09/05 11:53:05;;;;;;;3.80;3.00;;;;;;;;;;5052830;28;20036;-55
2023/09/05 11:55:31;;;;;;;3.60;2.92;;;;;;;;;;5041287;28;20125;-56
2023/09/05 11:57:58;;;;;;;5.25;2.80;;;;;;;;;;5049830;28;20112;-56
2023/09/05 12:00:25;;;;;;;2.90;2.70;;;;;;;;;;5046828;28;20031;-56
2023/09/05 12:02:52;;;;;;;6.63;2.75;;;;;;;;;;5046496;28;20025;-56
2023/09/05 12:05:19;;;;;;;4.38;2.97;;;;;;;;;;5050123;28;20044;-55
2023/09/05 12:07:51;;;;;;;3.38;3.08;;;;;;;;;;5032416;28;20482;-55
2023/09/05 12:10:17;;;;;;;3.95;3.30;;;;;;;;;;5047411;28;20087;-55
2023/09/05 12:13:02;;;;;;;3.30;3.10;;;;;;;;;;5050553;28;20037;-56
2023/09/05 12:15:32;;;;;;;5.40;3.47;;;;;;;;;;5048522;28;20107;-54
2023/09/05 12:17:59;;;;;;;4.60;3.40;;;;;;;;;;5048435;28;20094;-52
2023/09/05 12:20:26;;;;;;;3.72;3.40;;;;;;;;;;5050949;28;20072;-55
2023/09/05 12:22:51;;;;;;;3.60;3.30;;;;;;;;;;5052550;28;20047;-56
2023/09/05 12:25:19;;;;;;;4.15;3.60;;;;;;;;;;5050264;28;20033;-55
2023/09/05 12:27:46;;;;;;;4.00;3.60;;;;;;;;;;5049052;28;20139;-54
2023/09/05 12:30:29;;;;;;;4.72;3.50;;;;;;;;;;5031743;28;20120;-57
2023/09/05 12:33:04;;;;;;;3.80;3.50;;;;;;;;;;5034921;28;20413;-56
2023/09/05 12:35:31;;;;;;;4.00;3.60;;;;;;;;;;5041879;28;20656;-57
2023/09/05 12:37:59;;;;;;;4.63;3.90;;;;;;;;;;5050648;28;20033;-55
2023/09/05 12:40:25;;;;;;;4.45;3.90;;;;;;;;;;5040505;28;20028;-56
2023/09/05 12:42:51;;;;;;;4.88;3.90;;;;;;;;;;5050386;28;20116;-56
2023/09/05 12:45:18;;;;;;;4.20;3.80;;;;;;;;;;5050701;28;20108;-55
2023/09/05 12:47:43;;;;;;;4.97;4.40;;;;;;;;;;5048490;28;20040;-57
2023/09/05 12:50:12;;;;;;;4.30;3.90;;;;;;;;;;5044801;28;20083;-58
2023/09/05 12:52:44;;;;;;;4.57;4.05;;;;;;;;;;5050428;28;20064;-56
2023/09/05 12:55:14;;;;;;;4.70;4.10;;;;;;;;;;5051707;28;20037;-58
2023/09/05 12:57:41;;;;;;;5.88;4.20;;;;;;;;;;5050687;28;20029;-57
2023/09/05 13:00:08;;;;;;;4.85;4.25;;;;;;;;;;5050485;28;20044;-56
2023/09/05 13:02:35;;;;;;;6.22;4.20;;;;;;;;;;5049247;28;20043;-58
2023/09/05 13:05:01;;;;;;;4.70;4.30;;;;;;;;;;5038314;28;20034;-56
2023/09/05 13:07:26;;;;;;;4.63;4.15;;;;;;;;;;5043105;28;20052;-56
2023/09/05 13:09:53;;;;;;;5.78;4.40;;;;;;;;;;5050148;28;20064;-55
2023/09/05 13:12:18;;;;;;;4.95;4.55;;;;;;;;;;5050935;28;20032;-57
2023/09/05 13:14:45;;;;;;;4.68;4.28;;;;;;;;;;5049787;28;20495;-55
2023/09/05 13:17:14;;;;;;;4.88;4.47;;;;;;;;;;5042308;28;20534;-57
2023/09/05 13:19:40;;;;;;;5.00;4.60;;;;;;;;;;5044252;28;20029;-56
2023/09/05 13:22:06;;;;;;;5.00;4.60;;;;;;;;;;5050058;28;20063;-56
2023/09/05 13:24:32;;;;;;;5.18;4.78;;;;;;;;;;5049493;28;20057;-55
2023/09/05 13:26:59;;;;;;;7.15;4.80;;;;;;;;;;5049988;28;20044;-55
2023/09/05 13:29:24;;;;;;;5.28;4.88;;;;;;;;;;5036001;28;20040;-57
2023/09/05 13:31:50;;;;;;;5.03;4.60;;;;;;;;;;5033997;28;20025;-57
2023/09/05 13:34:16;;;;;;;4.78;4.38;;;;;;;;;;5043970;28;20028;-57
2023/09/05 13:36:42;;;;;;;4.97;4.57;;;;;;;;;;5050953;28;20040;-59
2023/09/05 13:39:08;;;;;;;5.30;4.80;;;;;;;;;;5046200;28;20029;-55
2023/09/05 13:41:33;;;;;;;9.10;4.95;;;;;;;;;;5040626;28;20024;-56
2023/09/05 13:43:59;;;;;;;5.03;4.60;;;;;;;;;;5050661;28;20025;-54
2023/09/05 13:46:24;;;;;;;5.47;4.90;;;;;;;;;;5051101;28;20032;-55
2023/09/05 13:48:50;;;;;;;5.22;4.72;;;;;;;;;;5052611;28;20067;-56
2023/09/05 13:51:21;;;;;;;5.15;4.60;;;;;;;;;;5041896;28;20042;-58
2023/09/05 13:53:50;;;;;;;5.82;4.72;;;;;;;;;;5055185;28;20029;-56
2023/09/05 13:56:16;;;;;;;5.00;4.50;;;;;;;;;;5044350;28;20036;-57
2023/09/05 13:58:42;;;;;;;5.20;4.70;;;;;;;;;;5034971;28;20045;-58
2023/09/05 14:01:08;;;;;;;5.07;4.68;;;;;;;;;;5043295;28;20075;-57
2023/09/05 14:03:33;;;;;;;5.18;4.68;;;;;;;;;;5054249;28;20056;-56
2023/09/05 14:05:59;;;;;;;8.70;5.05;;;;;;;;;;5054345;28;20092;-56
2023/09/05 14:08:26;;;;;;;5.18;4.78;;;;;;;;;;5052042;28;20454;-56
2023/09/05 14:10:52;;;;;;;5.25;4.85;;;;;;;;;;5053173;28;20029;-57
2023/09/05 14:13:18;;;;;;;5.60;5.10;;;;;;;;;;5044856;28;20048;-56
2023/09/05 14:15:44;;;;;;;5.43;4.93;;;;;;;;;;5054021;28;20194;-56
2023/09/05 14:18:12;;;;;;;5.13;4.68;;;;;;;;;;5051501;28;20029;-56
2023/09/05 14:20:38;;;;;;;5.35;4.85;;;;;;;;;;5042889;28;20263;-54
2023/09/05 14:23:03;;;;;;;5.30;4.90;;;;;;;;;;5034640;28;20112;-55
2023/09/05 14:25:29;;;;;;;4.97;4.57;;;;;;;;;;5051838;28;20515;-55
2023/09/05 14:27:54;;;;;;;5.13;4.70;;;;;;;;;;5049508;28;20036;-57
2023/09/05 14:30:20;;;;;;;5.40;5.00;;;;;;;;;;5047991;28;20036;-57
2023/09/05 14:32:45;;;;;;;6.30;5.15;;;;;;;;;;5051898;28;20033;-54
2023/09/05 14:35:11;;;;;;;5.50;4.85;;;;;;;;;;5046504;28;20033;-57
2023/09/05 14:37:36;;;;;;;6.05;5.50;;;;;;;;;;5053503;28;20108;-57
2023/09/05 14:40:02;;;;;;;6.00;5.47;;;;;;;;;;5053135;28;20063;-55
2023/09/05 14:42:31;;;;;;;7.18;5.03;;;;;;;;;;5042265;28;20025;-56